Terminal Aerodrome Forecast
Issued by NWS Portland, OR

Home | Current Version | Previous Version | Text Only | Print | Product List | Glossary On
Versions: 1 2 3 4 5 6 7 8 9 10 11 12 13 14 15 16 17 18 19 20 21 22 23 24 25 26 27 28 29 30 31 32 33 34 35 36 37 38 39
000
FTUS46 KPQR 270520
TAFAST
TAF
KAST 270520Z 2706/2806 VRB03KT P6SM SCT250
     FM270800 00000KT 4SM BR SCT004 SCT250
     FM271000 00000KT 1/2SM FG OVC003
     FM271500 19003KT 4SM BR OVC004
     FM271800 20008KT P6SM SCT005 SCT015
     FM280100 24013KT P6SM -RA BKN015=

USA.gov is the U.S. government's official web portal to all federal, state and local government web resources and services.